Time;durP1;ratioP1;P1;durP2;ratioP2;P2;SDS_P1;SDS_P2;PMS_P1;PMS_P2;Temp;Humidity;BMP_temperature;BMP_pressure;BME280_temperature;BME280_humidity;BME280_pressure;Samples;Min_cycle;Max_cycle;Signal;HPM_P1;HPM_P2
2021/06/01 00:02:13;;;;;;;6.30;4.15;;;;;;;;;;5033006;28;20025;-63
2021/06/01 00:04:39;;;;;;;6.70;3.90;;;;;;;;;;5034971;28;20393;-63
2021/06/01 00:07:05;;;;;;;6.43;4.13;;;;;;;;;;5032402;28;20132;-63
2021/06/01 00:09:31;;;;;;;5.32;3.85;;;;;;;;;;5033756;28;20060;-63
2021/06/01 00:11:57;;;;;;;6.97;4.18;;;;;;;;;;5031904;28;20025;-63
2021/06/01 00:14:23;;;;;;;8.48;4.30;;;;;;;;;;5029863;28;20037;-63
2021/06/01 00:16:50;;;;;;;6.72;4.00;;;;;;;;;;5035947;28;20033;-63
2021/06/01 00:19:16;;;;;;;5.72;3.92;;;;;;;;;;5032855;28;20037;-63
2021/06/01 00:21:42;;;;;;;5.65;4.00;;;;;;;;;;5032901;28;20028;-63
2021/06/01 00:24:08;;;;;;;6.60;4.00;;;;;;;;;;5032289;28;20080;-63
2021/06/01 00:26:35;;;;;;;7.07;4.32;;;;;;;;;;5028807;28;20040;-63
2021/06/01 00:29:01;;;;;;;6.00;4.25;;;;;;;;;;5034830;28;20220;-63
2021/06/01 00:31:27;;;;;;;8.50;3.78;;;;;;;;;;5033181;28;20018;-63
2021/06/01 00:33:53;;;;;;;5.18;3.60;;;;;;;;;;5031902;28;20044;-63
2021/06/01 00:36:19;;;;;;;5.93;3.70;;;;;;;;;;5032578;28;20139;-64
2021/06/01 00:38:45;;;;;;;7.20;4.28;;;;;;;;;;5030147;28;20046;-63
2021/06/01 00:41:11;;;;;;;6.35;3.95;;;;;;;;;;5032359;28;20353;-63
2021/06/01 00:43:37;;;;;;;6.22;4.10;;;;;;;;;;5033202;28;20032;-63
2021/06/01 00:46:04;;;;;;;5.57;3.72;;;;;;;;;;5032311;28;20116;-63
2021/06/01 00:48:30;;;;;;;6.80;3.92;;;;;;;;;;5032394;28;20115;-63
2021/06/01 00:50:56;;;;;;;6.20;3.55;;;;;;;;;;5031562;28;20025;-63
2021/06/01 00:53:22;;;;;;;5.07;3.70;;;;;;;;;;5028666;28;20049;-63
2021/06/01 00:55:48;;;;;;;5.47;3.80;;;;;;;;;;5034821;28;20028;-63
2021/06/01 00:58:14;;;;;;;6.22;4.10;;;;;;;;;;5032077;28;20041;-63
2021/06/01 01:03:07;;;;;;;6.75;3.70;;;;;;;;;;5031714;28;20056;-63
2021/06/01 01:05:36;;;;;;;5.93;3.70;;;;;;;;;;5027945;28;20029;-63
2021/06/01 01:10:56;;;;;;;5.25;3.67;;;;;;;;;;5032124;28;20535;-63
2021/06/01 01:13:22;;;;;;;6.53;4.20;;;;;;;;;;5032105;28;20128;-63
2021/06/01 01:15:50;;;;;;;7.45;3.88;;;;;;;;;;5031507;28;20028;-63
2021/06/01 01:18:19;;;;;;;7.97;4.07;;;;;;;;;;5031845;28;20460;-63
2021/06/01 01:21:02;;;;;;;6.30;3.88;;;;;;;;;;5029778;28;20388;-63
2021/06/01 01:23:29;;;;;;;7.82;4.10;;;;;;;;;;5011492;28;20022;-63
2021/06/01 01:26:14;;;;;;;5.53;3.80;;;;;;;;;;5034841;28;20037;-63
2021/06/01 01:28:58;;;;;;;6.72;3.70;;;;;;;;;;5032764;28;20488;-63
2021/06/01 01:31:26;;;;;;;6.50;3.83;;;;;;;;;;5031942;28;20389;-63
2021/06/01 01:33:52;;;;;;;5.72;3.80;;;;;;;;;;5031648;28;20036;-63
2021/06/01 01:36:19;;;;;;;5.35;3.72;;;;;;;;;;5031686;28;20403;-63
2021/06/01 01:38:45;;;;;;;6.25;4.00;;;;;;;;;;5028585;28;20052;-63
2021/06/01 01:41:13;;;;;;;6.68;4.00;;;;;;;;;;5030139;28;20097;-63
2021/06/01 01:43:43;;;;;;;5.40;3.78;;;;;;;;;;5032696;28;20044;-63
2021/06/01 01:46:24;;;;;;;6.43;3.90;;;;;;;;;;5031508;28;20018;-63
2021/06/01 01:49:00;;;;;;;6.70;4.07;;;;;;;;;;5030983;28;20105;-63
2021/06/01 01:51:31;;;;;;;5.47;3.70;;;;;;;;;;5031092;28;20501;-63
2021/06/01 01:53:57;;;;;;;5.63;3.75;;;;;;;;;;5030722;28;20070;-63
2021/06/01 01:56:36;;;;;;;6.10;3.90;;;;;;;;;;5028039;28;20033;-63
2021/06/01 01:59:04;;;;;;;5.93;3.70;;;;;;;;;;5033346;28;20105;-63
2021/06/01 02:01:30;;;;;;;5.55;3.70;;;;;;;;;;5031839;28;20473;-63
2021/06/01 02:03:57;;;;;;;5.60;3.50;;;;;;;;;;5031157;28;20464;-63
2021/06/01 02:06:23;;;;;;;5.68;3.90;;;;;;;;;;5031179;28;20025;-63
2021/06/01 02:08:49;;;;;;;4.65;3.60;;;;;;;;;;5029554;28;20072;-63
2021/06/01 02:11:15;;;;;;;5.50;3.35;;;;;;;;;;5029765;28;20113;-63
2021/06/01 02:13:42;;;;;;;5.15;3.60;;;;;;;;;;5032865;28;20120;-63
2021/06/01 02:16:08;;;;;;;5.60;3.43;;;;;;;;;;5030126;28;20025;-63
2021/06/01 02:18:34;;;;;;;6.20;3.92;;;;;;;;;;5031389;28;20096;-63
2021/06/01 02:21:01;;;;;;;5.50;3.88;;;;;;;;;;5030670;28;20147;-63
2021/06/01 02:23:50;;;;;;;5.47;3.60;;;;;;;;;;5011172;28;20246;-63
2021/06/01 02:26:18;;;;;;;6.00;3.90;;;;;;;;;;5030074;28;20060;-63
2021/06/01 02:28:49;;;;;;;6.03;3.92;;;;;;;;;;5033336;28;20042;-63
2021/06/01 02:31:19;;;;;;;5.65;3.63;;;;;;;;;;5031211;28;20098;-63
2021/06/01 02:33:46;;;;;;;4.78;3.42;;;;;;;;;;5031076;28;20033;-63
2021/06/01 02:36:14;;;;;;;4.57;3.58;;;;;;;;;;5033178;28;20021;-63
2021/06/01 02:38:40;;;;;;;5.85;3.78;;;;;;;;;;5032065;28;20412;-63
2021/06/01 02:41:07;;;;;;;5.72;3.60;;;;;;;;;;5035998;28;20156;-63
2021/06/01 02:43:33;;;;;;;6.13;4.00;;;;;;;;;;5035651;28;20392;-63
2021/06/01 02:46:00;;;;;;;5.72;3.80;;;;;;;;;;5034797;28;20381;-63
2021/06/01 02:48:26;;;;;;;5.47;3.90;;;;;;;;;;5034812;28;20040;-63
2021/06/01 02:50:54;;;;;;;4.15;3.40;;;;;;;;;;5033283;28;20021;-63
2021/06/01 02:53:21;;;;;;;5.72;3.85;;;;;;;;;;5031821;28;20151;-63
2021/06/01 02:55:48;;;;;;;7.57;3.67;;;;;;;;;;5037414;28;20041;-63
2021/06/01 02:58:14;;;;;;;4.60;3.85;;;;;;;;;;5034623;28;20033;-63
2021/06/01 03:00:41;;;;;;;5.47;3.88;;;;;;;;;;5034317;28;20533;-63
2021/06/01 03:03:07;;;;;;;6.13;3.70;;;;;;;;;;5034078;28;20057;-63
2021/06/01 03:05:34;;;;;;;4.82;3.55;;;;;;;;;;5029950;28;20071;-63
2021/06/01 03:08:07;;;;;;;7.10;4.10;;;;;;;;;;5036411;28;20025;-63
2021/06/01 03:10:33;;;;;;;6.07;4.00;;;;;;;;;;5035415;28;20415;-63
2021/06/01 03:13:01;;;;;;;6.72;3.90;;;;;;;;;;5033702;28;20030;-63
2021/06/01 03:15:27;;;;;;;6.80;3.92;;;;;;;;;;5034204;28;20427;-63
2021/06/01 03:17:54;;;;;;;5.60;3.60;;;;;;;;;;5033064;28;20035;-63
2021/06/01 03:20:21;;;;;;;5.57;3.38;;;;;;;;;;5036838;28;20033;-63
2021/06/01 03:22:47;;;;;;;4.87;3.73;;;;;;;;;;5046107;28;20053;-63
2021/06/01 03:25:13;;;;;;;7.45;3.90;;;;;;;;;;5040934;28;20056;-63
2021/06/01 03:27:40;;;;;;;5.47;3.53;;;;;;;;;;5041401;28;20029;-63
2021/06/01 03:30:07;;;;;;;7.95;3.92;;;;;;;;;;5041203;28;20029;-63
2021/06/01 03:32:33;;;;;;;5.38;3.90;;;;;;;;;;5041933;28;20025;-63
2021/06/01 03:34:59;;;;;;;7.65;4.05;;;;;;;;;;5036537;28;20083;-61
2021/06/01 03:37:25;;;;;;;5.38;3.95;;;;;;;;;;5035457;28;20484;-63
2021/06/01 03:39:51;;;;;;;5.65;3.80;;;;;;;;;;5034122;28;20041;-63
2021/06/01 03:42:17;;;;;;;5.88;4.00;;;;;;;;;;5033950;28;20029;-63
2021/06/01 03:44:43;;;;;;;5.43;3.80;;;;;;;;;;5031758;28;20189;-63
2021/06/01 03:47:09;;;;;;;5.57;3.75;;;;;;;;;;5034205;28;20108;-63
2021/06/01 03:49:36;;;;;;;5.90;4.03;;;;;;;;;;5035412;28;20113;-63
2021/06/01 03:52:06;;;;;;;7.53;3.70;;;;;;;;;;5033820;28;20017;-63
2021/06/01 03:54:33;;;;;;;6.50;3.80;;;;;;;;;;5034445;28;20393;-63
2021/06/01 03:56:59;;;;;;;7.28;4.13;;;;;;;;;;5033616;28;20104;-63
2021/06/01 03:59:25;;;;;;;4.57;3.78;;;;;;;;;;5030654;28;20517;-63
2021/06/01 04:01:51;;;;;;;7.18;4.32;;;;;;;;;;5036892;28;20029;-63
2021/06/01 04:04:17;;;;;;;5.88;4.07;;;;;;;;;;5033277;28;20044;-63
2021/06/01 04:06:42;;;;;;;6.15;3.92;;;;;;;;;;5034011;28;20108;-63
2021/06/01 04:09:08;;;;;;;5.80;4.10;;;;;;;;;;5033938;28;20033;-63
2021/06/01 04:11:34;;;;;;;6.55;3.95;;;;;;;;;;5030148;28;20485;-63
2021/06/01 04:14:00;;;;;;;5.22;3.55;;;;;;;;;;5035967;28;20065;-63
2021/06/01 04:16:28;;;;;;;6.60;4.38;;;;;;;;;;5033867;28;20025;-63
2021/06/01 04:18:55;;;;;;;8.27;4.18;;;;;;;;;;5033943;28;20140;-63
2021/06/01 04:21:21;;;;;;;5.43;4.25;;;;;;;;;;5033651;28;20122;-63
2021/06/01 04:23:47;;;;;;;6.50;4.30;;;;;;;;;;5032923;28;20033;-63
2021/06/01 04:26:13;;;;;;;6.10;4.20;;;;;;;;;;5033572;28;20017;-63
2021/06/01 04:28:41;;;;;;;6.53;4.35;;;;;;;;;;5034818;28;20029;-63
2021/06/01 04:31:07;;;;;;;5.85;4.10;;;;;;;;;;5033400;28;20026;-63
2021/06/01 04:33:33;;;;;;;7.05;4.05;;;;;;;;;;5033605;28;20500;-63
2021/06/01 04:35:59;;;;;;;6.10;3.92;;;;;;;;;;5033269;28;20021;-63
2021/06/01 04:38:25;;;;;;;6.13;4.30;;;;;;;;;;5029652;28;20070;-63
2021/06/01 04:40:51;;;;;;;7.28;4.05;;;;;;;;;;5035890;28;20021;-63
2021/06/01 04:43:17;;;;;;;7.43;4.93;;;;;;;;;;5040580;28;20033;-63
2021/06/01 04:45:44;;;;;;;7.60;4.40;;;;;;;;;;5040736;28;20021;-63
2021/06/01 04:48:10;;;;;;;6.20;4.45;;;;;;;;;;5040745;28;20021;-63
2021/06/01 04:50:36;;;;;;;6.43;4.00;;;;;;;;;;5034572;28;20067;-63
2021/06/01 04:53:02;;;;;;;7.25;4.20;;;;;;;;;;5033698;28;20034;-63
2021/06/01 04:55:28;;;;;;;7.07;4.55;;;;;;;;;;5032412;28;20034;-63
2021/06/01 04:57:54;;;;;;;7.65;5.10;;;;;;;;;;5032743;28;20028;-63
2021/06/01 05:00:20;;;;;;;11.25;4.88;;;;;;;;;;5031633;28;20514;-63
2021/06/01 05:02:46;;;;;;;6.68;4.72;;;;;;;;;;5033746;28;20017;-63
2021/06/01 05:05:12;;;;;;;6.57;4.82;;;;;;;;;;5049128;28;20071;-62
2021/06/01 05:07:38;;;;;;;6.40;4.40;;;;;;;;;;5034133;28;20032;-62
2021/06/01 05:10:04;;;;;;;6.68;4.07;;;;;;;;;;5032409;28;20373;-62
2021/06/01 05:12:31;;;;;;;7.68;4.50;;;;;;;;;;5039828;28;20104;-62
2021/06/01 05:14:57;;;;;;;6.72;4.18;;;;;;;;;;5035220;28;20502;-63
2021/06/01 05:17:24;;;;;;;6.57;4.50;;;;;;;;;;5026249;28;20105;-63
2021/06/01 05:19:50;;;;;;;7.70;4.70;;;;;;;;;;5030013;28;20036;-62
2021/06/01 05:22:16;;;;;;;7.50;4.90;;;;;;;;;;5031578;28;20508;-63
2021/06/01 05:24:43;;;;;;;6.53;5.20;;;;;;;;;;5036072;28;20116;-62
2021/06/01 05:27:09;;;;;;;7.95;4.43;;;;;;;;;;5041665;28;20387;-62
2021/06/01 05:29:38;;;;;;;6.60;4.63;;;;;;;;;;5025816;28;20040;-63
2021/06/01 05:35:05;;;;;;;8.88;5.60;;;;;;;;;;4996953;28;20165;-62
2021/06/01 05:37:35;;;;;;;6.97;5.07;;;;;;;;;;5033002;28;20052;-63
2021/06/01 05:40:02;;;;;;;5.40;4.28;;;;;;;;;;5033464;28;20029;-63
2021/06/01 05:42:28;;;;;;;6.25;4.47;;;;;;;;;;5043367;28;20025;-63
2021/06/01 05:44:54;;;;;;;6.38;3.53;;;;;;;;;;5039954;28;20048;-63
2021/06/01 05:47:20;;;;;;;8.73;3.63;;;;;;;;;;5039977;28;20061;-64
2021/06/01 05:49:46;;;;;;;4.60;3.17;;;;;;;;;;5044097;28;20491;-65
2021/06/01 05:52:12;;;;;;;5.70;3.63;;;;;;;;;;5039082;28;20060;-63
2021/06/01 05:54:38;;;;;;;7.22;3.72;;;;;;;;;;5040641;28;20037;-63
2021/06/01 05:57:05;;;;;;;8.00;3.85;;;;;;;;;;5035067;28;20079;-63
2021/06/01 05:59:31;;;;;;;7.15;4.20;;;;;;;;;;5028874;28;20029;-63
2021/06/01 06:01:57;;;;;;;5.22;3.63;;;;;;;;;;5046442;28;20099;-63
2021/06/01 06:04:23;;;;;;;6.10;3.42;;;;;;;;;;5032453;28;20116;-63
2021/06/01 06:06:49;;;;;;;5.25;3.67;;;;;;;;;;5032269;28;20022;-63
2021/06/01 06:09:15;;;;;;;5.43;3.45;;;;;;;;;;5042113;28;20033;-62
2021/06/01 06:11:41;;;;;;;6.55;3.80;;;;;;;;;;5032717;28;20025;-63
2021/06/01 06:14:07;;;;;;;4.47;3.53;;;;;;;;;;5033202;28;20442;-62
2021/06/01 06:16:41;;;;;;;5.43;3.55;;;;;;;;;;5043204;28;20039;-62
2021/06/01 06:19:07;;;;;;;4.57;3.15;;;;;;;;;;5043141;28;20068;-62
2021/06/01 06:21:33;;;;;;;6.95;3.58;;;;;;;;;;5042716;28;20037;-62
2021/06/01 06:23:59;;;;;;;5.03;3.53;;;;;;;;;;5042120;28;20499;-63
2021/06/01 06:26:25;;;;;;;7.45;3.58;;;;;;;;;;5036829;28;20026;-63
2021/06/01 06:28:51;;;;;;;5.85;3.25;;;;;;;;;;5039021;28;20030;-63
2021/06/01 06:31:18;;;;;;;4.40;2.92;;;;;;;;;;5036310;28;20107;-63
2021/06/01 06:33:44;;;;;;;4.78;2.88;;;;;;;;;;5043776;28;20036;-61
2021/06/01 06:36:10;;;;;;;5.65;3.00;;;;;;;;;;5044116;28;20029;-63
2021/06/01 06:38:37;;;;;;;5.30;3.40;;;;;;;;;;5043603;28;20049;-63
2021/06/01 06:41:13;;;;;;;5.68;3.33;;;;;;;;;;5042182;28;20464;-61
2021/06/01 06:43:50;;;;;;;6.80;3.23;;;;;;;;;;5038262;28;20065;-56
2021/06/01 06:46:24;;;;;;;4.70;3.10;;;;;;;;;;5045051;28;20040;-59
2021/06/01 06:48:50;;;;;;;4.10;2.75;;;;;;;;;;5043296;28;20024;-59
2021/06/01 06:51:16;;;;;;;7.30;2.88;;;;;;;;;;5040836;28;20032;-59
2021/06/01 06:53:51;;;;;;;6.35;3.08;;;;;;;;;;5040432;28;20037;-57
2021/06/01 06:56:18;;;;;;;4.38;2.50;;;;;;;;;;5040870;28;20030;-59
2021/06/01 06:58:44;;;;;;;6.10;3.03;;;;;;;;;;5044434;28;20380;-59
2021/06/01 07:01:10;;;;;;;4.93;2.80;;;;;;;;;;5039248;28;20560;-59
2021/06/01 07:03:36;;;;;;;3.40;2.53;;;;;;;;;;5037571;28;20029;-59
2021/06/01 07:06:02;;;;;;;3.60;2.80;;;;;;;;;;5032193;28;20100;-59
2021/06/01 07:08:28;;;;;;;4.20;2.83;;;;;;;;;;5032844;28;20445;-57
2021/06/01 07:10:54;;;;;;;4.13;2.83;;;;;;;;;;5033269;28;20017;-56
2021/06/01 07:13:21;;;;;;;5.65;3.17;;;;;;;;;;5032685;28;20580;-56
2021/06/01 07:15:48;;;;;;;5.03;2.65;;;;;;;;;;5032763;28;20033;-57
2021/06/01 07:18:14;;;;;;;4.38;2.67;;;;;;;;;;5031507;28;20026;-57
2021/06/01 07:20:40;;;;;;;6.07;2.70;;;;;;;;;;5031971;28;20481;-57
2021/06/01 07:23:06;;;;;;;5.10;3.03;;;;;;;;;;5032668;28;20025;-60
2021/06/01 07:25:32;;;;;;;4.75;2.80;;;;;;;;;;5032691;28;20025;-57
2021/06/01 07:27:58;;;;;;;4.20;2.80;;;;;;;;;;5032386;28;20037;-59
2021/06/01 07:30:24;;;;;;;3.75;2.90;;;;;;;;;;5031194;28;20481;-57
2021/06/01 07:32:50;;;;;;;3.50;2.70;;;;;;;;;;5027997;28;20044;-57
2021/06/01 07:35:17;;;;;;;6.88;3.13;;;;;;;;;;5032619;28;20029;-57
2021/06/01 07:37:43;;;;;;;5.18;2.92;;;;;;;;;;5033217;28;20005;-57
2021/06/01 07:40:09;;;;;;;5.72;2.97;;;;;;;;;;5031143;28;20052;-57
2021/06/01 07:42:35;;;;;;;6.55;4.07;;;;;;;;;;5027929;28;20028;-65
2021/06/01 07:45:01;;;;;;;5.05;3.47;;;;;;;;;;5031994;28;20392;-66
2021/06/01 07:47:27;;;;;;;6.20;4.75;;;;;;;;;;5036242;28;20029;-70
2021/06/01 07:49:53;;;;;;;8.77;4.22;;;;;;;;;;5037528;28;20025;-61
2021/06/01 07:52:19;;;;;;;5.28;3.90;;;;;;;;;;5033615;28;20026;-61
2021/06/01 07:54:45;;;;;;;8.80;4.35;;;;;;;;;;5030145;28;20543;-62
2021/06/01 07:57:11;;;;;;;7.70;5.22;;;;;;;;;;5031526;28;20061;-64
2021/06/01 07:59:37;;;;;;;9.45;6.35;;;;;;;;;;5031607;28;20441;-63
2021/06/01 08:02:03;;;;;;;9.60;5.30;;;;;;;;;;5032192;28;20024;-62
2021/06/01 08:04:29;;;;;;;9.48;6.88;;;;;;;;;;5032293;28;20027;-62
2021/06/01 08:07:00;;;;;;;11.15;8.30;;;;;;;;;;5030770;28;20392;-67
2021/06/01 08:09:26;;;;;;;12.90;6.95;;;;;;;;;;5031321;28;20396;-60
2021/06/01 08:11:52;;;;;;;11.65;7.30;;;;;;;;;;5031534;28;20032;-60
2021/06/01 08:14:18;;;;;;;10.90;8.18;;;;;;;;;;5030830;28;20438;-60
2021/06/01 08:16:45;;;;;;;11.23;8.95;;;;;;;;;;5032733;28;20029;-59
2021/06/01 08:19:18;;;;;;;;;;;;;;;;;;5031128;28;20053;-59
2021/06/01 08:24:10;;;;;;;13.32;8.95;;;;;;;;;;5031033;28;20488;-59
2021/06/01 08:26:36;;;;;;;9.82;8.05;;;;;;;;;;5030856;28;20469;-59
2021/06/01 08:29:02;;;;;;;10.52;7.70;;;;;;;;;;5031534;28;20520;-59
2021/06/01 08:31:28;;;;;;;13.95;9.35;;;;;;;;;;5031639;28;20498;-58
2021/06/01 08:33:54;;;;;;;12.32;9.00;;;;;;;;;;5029999;28;20026;-58
2021/06/01 08:36:20;;;;;;;11.85;9.05;;;;;;;;;;5030467;28;20162;-58
2021/06/01 08:38:46;;;;;;;12.85;9.23;;;;;;;;;;5030219;28;20037;-58
2021/06/01 08:41:17;;;;;;;14.20;9.20;;;;;;;;;;5031006;28;20026;-58
2021/06/01 08:43:43;;;;;;;11.38;8.75;;;;;;;;;;5030591;28;20119;-58
2021/06/01 08:46:10;;;;;;;11.63;8.77;;;;;;;;;;5032958;28;20542;-58
2021/06/01 08:48:37;;;;;;;10.32;8.55;;;;;;;;;;5032597;28;20024;-58
2021/06/01 08:51:03;;;;;;;11.95;8.35;;;;;;;;;;5029741;28;20439;-58
2021/06/01 08:53:29;;;;;;;11.50;8.07;;;;;;;;;;5032342;28;20030;-58
2021/06/01 08:55:55;;;;;;;12.80;7.35;;;;;;;;;;5033298;28;20033;-58
2021/06/01 08:58:22;;;;;;;10.90;7.20;;;;;;;;;;5032636;28;20056;-58
2021/06/01 09:00:49;;;;;;;12.65;6.90;;;;;;;;;;5032461;28;20068;-58
2021/06/01 09:03:17;;;;;;;9.88;6.50;;;;;;;;;;5031382;28;20036;-58
2021/06/01 09:06:34;;;;;;;10.07;6.72;;;;;;;;;;5032503;28;20118;-58
2021/06/01 09:14:38;;;;;;;8.80;7.03;;;;;;;;;;5034483;28;20131;-59
2021/06/01 09:22:57;;;;;;;10.40;6.72;;;;;;;;;;5042741;28;20044;-59
2021/06/01 09:27:56;;;;;;;11.45;7.85;;;;;;;;;;5031802;28;20036;-59
2021/06/01 09:30:43;;;;;;;13.15;7.32;;;;;;;;;;5032430;28;20108;-59
2021/06/01 09:33:29;;;;;;;14.90;7.43;;;;;;;;;;5031689;28;20487;-60
2021/06/01 09:35:59;;;;;;;10.30;7.57;;;;;;;;;;5030532;28;20705;-59
2021/06/01 09:38:45;;;;;;;13.07;7.15;;;;;;;;;;5035815;28;20568;-59
2021/06/01 09:41:11;;;;;;;9.45;7.13;;;;;;;;;;5044041;28;20086;-60
2021/06/01 09:43:56;;;;;;;14.68;7.80;;;;;;;;;;5032885;28;20381;-61
2021/06/01 09:46:22;;;;;;;9.82;7.50;;;;;;;;;;5032268;28;20033;-61
2021/06/01 09:48:48;;;;;;;10.25;6.78;;;;;;;;;;5032375;28;20539;-60
2021/06/01 09:51:36;;;;;;;10.82;6.95;;;;;;;;;;5032079;28;20033;-61
2021/06/01 09:54:22;;;;;;;10.02;6.68;;;;;;;;;;5031247;28;20122;-58
2021/06/01 09:56:48;;;;;;;9.57;6.40;;;;;;;;;;5017045;28;20018;-59
2021/06/01 09:59:14;;;;;;;11.55;6.78;;;;;;;;;;5032024;28;20056;-58
2021/06/01 10:01:40;;;;;;;11.55;5.60;;;;;;;;;;5033161;28;20449;-62
2021/06/01 10:04:06;;;;;;;11.82;6.45;;;;;;;;;;5031895;28;20036;-61
2021/06/01 10:06:35;;;;;;;10.30;6.68;;;;;;;;;;5031115;28;20029;-60
2021/06/01 10:09:10;;;;;;;8.82;6.13;;;;;;;;;;5031633;28;20388;-60
2021/06/01 10:11:36;;;;;;;10.02;6.07;;;;;;;;;;5013765;28;20025;-63
2021/06/01 10:14:02;;;;;;;9.18;6.22;;;;;;;;;;5033344;28;20503;-62
2021/06/01 10:16:28;;;;;;;10.20;6.03;;;;;;;;;;5031406;28;20021;-60
2021/06/01 10:18:55;;;;;;;8.57;6.10;;;;;;;;;;5037033;28;20388;-60
2021/06/01 10:21:21;;;;;;;8.45;5.85;;;;;;;;;;5039489;28;20452;-60
2021/06/01 10:23:53;;;;;;;10.00;6.10;;;;;;;;;;5040238;28;20045;-62
2021/06/01 10:26:23;;;;;;;9.70;5.47;;;;;;;;;;5037413;28;20040;-61
2021/06/01 10:28:49;;;;;;;7.90;4.97;;;;;;;;;;5042295;28;20020;-60
2021/06/01 10:31:17;;;;;;;8.13;5.25;;;;;;;;;;5040449;28;20047;-62
2021/06/01 10:33:50;;;;;;;8.23;5.72;;;;;;;;;;5039899;28;20021;-62
2021/06/01 10:52:26;;;;;;;8.70;5.70;;;;;;;;;;5039718;28;20400;-62
2021/06/01 10:54:53;;;;;;;9.48;5.35;;;;;;;;;;5037817;28;20238;-61
2021/06/01 10:57:20;;;;;;;9.52;5.68;;;;;;;;;;5039206;28;20484;-61
2021/06/01 11:02:18;;;;;;;10.82;5.03;;;;;;;;;;5040562;28;20025;-61
2021/06/01 11:05:01;;;;;;;7.43;4.90;;;;;;;;;;5041533;28;20115;-60
2021/06/01 11:07:39;;;;;;;7.63;4.47;;;;;;;;;;5032657;28;20037;-60
2021/06/01 11:10:05;;;;;;;9.52;5.63;;;;;;;;;;5034738;28;20029;-61
2021/06/01 11:12:38;;;;;;;7.60;5.70;;;;;;;;;;5036893;28;20511;-61
2021/06/01 11:15:21;;;;;;;8.52;5.07;;;;;;;;;;5041173;28;20529;-62
2021/06/01 11:17:47;;;;;;;6.47;4.70;;;;;;;;;;5036631;28;20532;-62
2021/06/01 11:20:23;;;;;;;7.22;4.90;;;;;;;;;;5034423;28;20025;-63
2021/06/01 11:33:33;;;;;;;6.18;4.43;;;;;;;;;;5034317;28;20052;-61
2021/06/01 11:36:04;;;;;;;10.15;5.30;;;;;;;;;;5039937;28;20105;-62
2021/06/01 11:43:55;;;;;;;7.15;5.50;;;;;;;;;;5041842;28;20103;-62
2021/06/01 11:46:49;;;;;;;7.55;4.85;;;;;;;;;;5041480;28;20025;-60
2021/06/01 11:51:53;;;;;;;6.30;4.97;;;;;;;;;;5039457;28;19916;-60
2021/06/01 11:54:19;;;;;;;8.02;5.28;;;;;;;;;;5041940;28;20400;-60
2021/06/01 12:02:13;;;;;;;7.03;4.68;;;;;;;;;;5041120;28;20021;-60
2021/06/01 12:05:04;;;;;;;7.78;4.85;;;;;;;;;;5039444;28;20145;-60
2021/06/01 12:18:43;;;;;;;6.00;4.30;;;;;;;;;;5032999;28;20388;-60
2021/06/01 12:21:14;;;;;;;8.77;4.32;;;;;;;;;;5033142;28;20020;-60
2021/06/01 12:23:44;;;;;;;8.38;4.40;;;;;;;;;;5029827;28;20026;-60
2021/06/01 12:31:56;;;;;;;7.22;4.47;;;;;;;;;;5035548;28;20080;-60
2021/06/01 12:34:29;;;;;;;7.60;4.00;;;;;;;;;;5032542;28;20065;-60
2021/06/01 12:44:56;;;;;;;12.50;4.25;;;;;;;;;;5031346;28;20029;-62
2021/06/01 13:47:14;;;;;;;5.05;3.63;;;;;;;;;;5018995;28;20032;-62
2021/06/01 13:49:49;;;;;;;8.73;4.72;;;;;;;;;;5032850;28;20036;-62
2021/06/01 15:49:53;;;;;;;8.23;4.80;;;;;;;;;;5034299;28;20079;-60
2021/06/01 16:43:41;;;;;;;8.73;5.15;;;;;;;;;;5036137;28;20036;-61
2021/06/01 17:05:46;;;;;;;9.95;6.07;;;;;;;;;;5026002;28;20068;-61
2021/06/01 17:08:34;;;;;;;8.98;5.43;;;;;;;;;;5023076;28;20436;-61
2021/06/01 17:11:17;;;;;;;6.68;5.45;;;;;;;;;;5033246;28;20338;-60
2021/06/01 17:13:49;;;;;;;6.88;5.07;;;;;;;;;;5032567;28;20025;-61
2021/06/01 17:16:34;;;;;;;9.32;5.00;;;;;;;;;;5023198;28;20056;-61
2021/06/01 17:36:13;;;;;;;7.75;4.90;;;;;;;;;;5016206;28;20048;-61
2021/06/01 17:38:38;;;;;;;7.47;4.72;;;;;;;;;;5017661;28;20109;-61
2021/06/01 17:41:13;;;;;;;12.68;4.47;;;;;;;;;;5032784;28;20496;-61
2021/06/01 17:43:43;;;;;;;9.65;4.95;;;;;;;;;;5034257;28;20100;-60
2021/06/01 17:46:12;;;;;;;11.25;5.25;;;;;;;;;;5023743;28;20034;-61
2021/06/01 17:48:49;;;;;;;8.65;4.80;;;;;;;;;;5028156;28;20025;-61
2021/06/01 17:51:18;;;;;;;8.43;5.03;;;;;;;;;;5031648;28;20043;-60
2021/06/01 17:53:46;;;;;;;8.27;5.00;;;;;;;;;;5026491;28;20100;-60
2021/06/01 17:56:13;;;;;;;7.43;4.82;;;;;;;;;;5026221;28;20026;-60
2021/06/01 17:58:39;;;;;;;5.97;4.30;;;;;;;;;;5031415;28;20036;-60
2021/06/01 18:01:06;;;;;;;8.90;4.50;;;;;;;;;;5018320;28;20037;-60
2021/06/01 18:03:35;;;;;;;7.43;4.57;;;;;;;;;;5029623;28;20026;-60
2021/06/01 18:06:02;;;;;;;8.45;4.88;;;;;;;;;;5031846;28;20086;-60
2021/06/01 18:08:40;;;;;;;8.40;5.25;;;;;;;;;;5024215;28;20144;-60
2021/06/01 18:37:16;;;;;;;8.10;5.00;;;;;;;;;;5037213;28;20116;-64
2021/06/01 19:12:07;;;;;;;10.77;5.30;;;;;;;;;;5016509;28;20092;-64
2021/06/01 19:23:47;;;;;;;7.22;5.00;;;;;;;;;;5037273;28;20071;-64
2021/06/01 19:42:47;;;;;;;10.48;5.50;;;;;;;;;;5017024;28;20041;-64
2021/06/01 19:50:44;;;;;;;8.05;5.63;;;;;;;;;;5021881;28;20107;-65
2021/06/01 19:53:13;;;;;;;6.93;5.55;;;;;;;;;;5015685;28;20686;-64
2021/06/01 19:55:39;;;;;;;8.73;5.60;;;;;;;;;;5017777;28;20046;-63
2021/06/01 19:58:05;;;;;;;10.00;5.55;;;;;;;;;;5018568;28;20021;-63
2021/06/01 20:00:34;;;;;;;6.95;5.57;;;;;;;;;;5017841;28;20022;-63
2021/06/01 20:03:03;;;;;;;10.10;5.32;;;;;;;;;;5017784;28;20380;-63
2021/06/01 20:05:32;;;;;;;7.75;5.35;;;;;;;;;;5013687;28;20029;-63
2021/06/01 20:07:58;;;;;;;8.27;5.30;;;;;;;;;;5028103;28;20026;-63
2021/06/01 20:10:27;;;;;;;9.23;5.85;;;;;;;;;;5018394;28;20052;-64
2021/06/01 20:12:57;;;;;;;11.05;5.30;;;;;;;;;;5021663;28;20032;-64
2021/06/01 20:15:29;;;;;;;8.05;5.47;;;;;;;;;;5026290;28;20048;-63
2021/06/01 20:17:57;;;;;;;11.07;6.60;;;;;;;;;;5016700;28;20025;-63
2021/06/01 20:20:23;;;;;;;8.80;6.43;;;;;;;;;;5014353;28;20102;-63
2021/06/01 20:22:51;;;;;;;7.13;5.60;;;;;;;;;;5037312;28;20033;-63
2021/06/01 20:25:23;;;;;;;6.93;5.65;;;;;;;;;;5032888;28;20029;-63
2021/06/01 20:27:57;;;;;;;6.78;5.47;;;;;;;;;;5033092;28;20029;-63
2021/06/01 20:30:28;;;;;;;8.00;5.38;;;;;;;;;;5033392;28;20021;-63
2021/06/01 20:33:11;;;;;;;11.63;5.53;;;;;;;;;;5031602;28;20029;-63
2021/06/01 20:35:43;;;;;;;9.55;5.63;;;;;;;;;;5014903;28;20068;-64
2021/06/01 20:38:12;;;;;;;9.00;6.55;;;;;;;;;;5033407;28;20399;-63
2021/06/01 20:40:39;;;;;;;9.57;6.40;;;;;;;;;;5035992;28;20025;-63
2021/06/01 20:43:09;;;;;;;13.05;6.85;;;;;;;;;;5032214;28;20018;-63
2021/06/01 20:45:39;;;;;;;9.63;6.85;;;;;;;;;;5032531;28;20025;-63
2021/06/01 20:48:10;;;;;;;10.70;6.60;;;;;;;;;;5031821;28;20021;-63
2021/06/01 20:50:40;;;;;;;9.77;6.55;;;;;;;;;;5028679;28;20076;-63
2021/06/01 20:53:06;;;;;;;10.63;6.90;;;;;;;;;;5033977;28;20365;-63
2021/06/01 20:55:32;;;;;;;9.63;6.10;;;;;;;;;;5033382;28;20511;-63
2021/06/01 20:58:06;;;;;;;8.40;6.50;;;;;;;;;;5032846;28;20024;-63
2021/06/01 21:00:36;;;;;;;10.07;6.82;;;;;;;;;;5034170;28;20029;-63
2021/06/01 21:03:06;;;;;;;9.20;6.63;;;;;;;;;;5031898;28;20017;-63
2021/06/01 21:05:32;;;;;;;9.15;6.43;;;;;;;;;;5014245;28;20334;-63
2021/06/01 21:07:59;;;;;;;11.07;6.30;;;;;;;;;;5036110;28;20488;-63
2021/06/01 21:10:26;;;;;;;11.85;6.47;;;;;;;;;;5034259;28;20030;-63
2021/06/01 21:12:53;;;;;;;7.88;6.38;;;;;;;;;;5034124;28;20022;-63
2021/06/01 21:15:22;;;;;;;11.63;6.63;;;;;;;;;;5032556;28;20059;-63
2021/06/01 21:17:49;;;;;;;9.13;6.15;;;;;;;;;;5030210;28;20263;-63
2021/06/01 21:20:16;;;;;;;8.82;6.63;;;;;;;;;;5032413;28;20076;-63
2021/06/01 21:22:43;;;;;;;11.35;7.40;;;;;;;;;;5034365;28;20036;-63
2021/06/01 21:25:13;;;;;;;10.65;7.07;;;;;;;;;;5032161;28;20393;-63
2021/06/01 21:27:40;;;;;;;9.05;6.55;;;;;;;;;;5031679;28;20040;-63
2021/06/01 21:30:10;;;;;;;11.10;6.75;;;;;;;;;;5033777;28;20032;-63
2021/06/01 21:32:45;;;;;;;8.80;6.90;;;;;;;;;;5028951;28;20037;-63
2021/06/01 21:35:15;;;;;;;8.18;6.90;;;;;;;;;;5032389;28;20392;-63
2021/06/01 21:37:44;;;;;;;9.55;7.00;;;;;;;;;;5033318;28;20036;-63
2021/06/01 21:40:11;;;;;;;8.60;6.70;;;;;;;;;;5031482;28;20029;-63
2021/06/01 21:42:46;;;;;;;8.73;6.68;;;;;;;;;;5032679;28;20025;-63
2021/06/01 21:45:20;;;;;;;8.32;6.20;;;;;;;;;;5032137;28;20119;-63
2021/06/01 21:47:46;;;;;;;9.85;6.43;;;;;;;;;;5029081;28;20080;-63
2021/06/01 21:50:12;;;;;;;9.98;6.18;;;;;;;;;;5032478;28;20389;-64
2021/06/01 21:52:38;;;;;;;8.43;5.72;;;;;;;;;;5035296;28;20029;-63
2021/06/01 21:55:07;;;;;;;9.50;6.00;;;;;;;;;;5031834;28;20127;-63
2021/06/01 21:57:38;;;;;;;9.23;6.10;;;;;;;;;;5031996;28;20018;-63
2021/06/01 22:00:08;;;;;;;9.77;5.78;;;;;;;;;;5027979;28;20161;-63
2021/06/01 22:02:34;;;;;;;7.90;5.40;;;;;;;;;;5039242;28;20021;-63
2021/06/01 22:05:00;;;;;;;7.68;5.78;;;;;;;;;;5032837;28;20021;-63
2021/06/01 22:07:26;;;;;;;8.23;6.03;;;;;;;;;;5030113;28;20029;-63
2021/06/01 22:09:55;;;;;;;9.85;5.43;;;;;;;;;;5030007;28;20044;-63
2021/06/01 22:12:21;;;;;;;8.32;6.28;;;;;;;;;;5030526;28;20017;-63
2021/06/01 22:14:47;;;;;;;8.43;6.28;;;;;;;;;;5027917;28;20040;-63
2021/06/01 22:17:15;;;;;;;6.90;5.68;;;;;;;;;;5029898;28;20021;-63